Time;durP1;ratioP1;P1;durP2;ratioP2;P2;SDS_P1;SDS_P2;PMS_P1;PMS_P2;Temp;Humidity;BMP_temperature;BMP_pressure;BME280_temperature;BME280_humidity;BME280_pressure;Samples;Min_cycle;Max_cycle;Signal;HPM_P1;HPM_P2
2021/09/25 00:02:01;;;;;;;23.00;11.00;;;;;;;7.84;78.12;98670.59;5115703;28;20039;-77
2021/09/25 00:04:27;;;;;;;26.85;11.73;;;;;;;7.81;77.97;98666.41;5114894;28;20464;-77
2021/09/25 00:06:53;;;;;;;24.02;11.18;;;;;;;7.81;77.88;98658.53;5114344;28;20039;-77
2021/09/25 00:09:19;;;;;;;25.98;11.02;;;;;;;7.80;77.75;98659.50;5115458;28;20038;-80
2021/09/25 00:11:45;;;;;;;25.85;11.20;;;;;;;7.84;77.47;98666.19;5114880;28;20372;-78
2021/09/25 00:14:10;;;;;;;28.63;11.70;;;;;;;7.83;77.84;98664.50;5115692;28;20078;-79
2021/09/25 00:16:36;;;;;;;23.95;10.65;;;;;;;7.87;77.74;98665.09;5115021;28;20043;-76
2021/09/25 00:19:03;;;;;;;22.58;10.55;;;;;;;7.85;77.87;98662.59;5096655;28;20179;-79
2021/09/25 00:21:30;;;;;;;27.15;11.40;;;;;;;7.90;77.54;98657.78;5114056;28;20041;-74
2021/09/25 00:23:55;;;;;;;23.02;10.90;;;;;;;7.83;77.52;98663.69;5095701;28;20512;-76
2021/09/25 00:26:21;;;;;;;24.75;11.32;;;;;;;7.88;77.33;98654.44;5114216;28;20127;-75
2021/09/25 00:28:47;;;;;;;26.48;12.00;;;;;;;7.82;77.46;98660.19;5113949;28;20096;-80
2021/09/25 00:31:13;;;;;;;25.50;10.63;;;;;;;7.86;77.57;98658.16;5113959;28;20057;-77
2021/09/25 00:33:40;;;;;;;29.00;11.80;;;;;;;7.86;77.64;98653.75;5114042;28;20376;-78
2021/09/25 00:36:06;;;;;;;27.42;11.68;;;;;;;7.85;77.26;98657.31;5113546;28;20061;-75
2021/09/25 00:38:32;;;;;;;25.80;11.32;;;;;;;7.89;77.07;98650.84;5087509;28;20142;-77
2021/09/25 00:40:59;;;;;;;23.38;10.85;;;;;;;7.90;77.37;98644.63;5072163;28;20145;-76
2021/09/25 00:43:25;;;;;;;27.20;11.75;;;;;;;7.90;77.12;98655.16;5054683;28;20032;-76
2021/09/25 00:45:51;;;;;;;29.50;11.95;;;;;;;7.91;77.13;98651.56;5073311;28;20037;-76
2021/09/25 00:48:17;;;;;;;28.75;12.52;;;;;;;7.82;77.38;98651.47;5054796;28;20062;-74
2021/09/25 00:50:43;;;;;;;30.13;11.32;;;;;;;7.80;77.53;98648.97;5072360;28;20068;-74
2021/09/25 00:53:08;;;;;;;27.35;10.90;;;;;;;7.82;77.38;98641.78;5072881;28;20119;-74
2021/09/25 00:55:34;;;;;;;24.25;11.35;;;;;;;7.87;77.18;98655.38;5071253;28;20468;-74
2021/09/25 00:58:04;;;;;;;24.65;10.63;;;;;;;7.87;77.57;98647.50;5072301;28;20386;-75
2021/09/25 01:00:31;;;;;;;28.00;12.02;;;;;;;7.88;77.28;98651.78;5071312;28;20036;-77
2021/09/25 01:02:56;;;;;;;28.80;10.95;;;;;;;7.86;77.11;98645.00;5072515;28;20059;-78
2021/09/25 01:05:23;;;;;;;25.70;10.68;;;;;;;7.89;77.17;98645.56;5054856;28;20032;-76
2021/09/25 01:07:49;;;;;;;24.02;11.10;;;;;;;7.86;77.68;98648.47;5072349;28;20060;-77
2021/09/25 01:10:16;;;;;;;25.60;11.45;;;;;;;7.86;77.61;98653.75;5054806;28;20174;-81
2021/09/25 01:12:43;;;;;;;25.75;10.80;;;;;;;7.82;77.64;98654.94;5072083;28;20039;-79
2021/09/25 01:15:09;;;;;;;31.13;11.15;;;;;;;7.88;77.62;98658.88;5072141;28;20045;-76
2021/09/25 01:17:35;;;;;;;26.17;11.00;;;;;;;7.90;77.44;98655.16;5054305;28;20075;-77
2021/09/25 01:20:02;;;;;;;24.65;10.32;;;;;;;7.91;77.55;98656.81;5072473;28;20045;-76
2021/09/25 01:22:28;;;;;;;28.33;10.95;;;;;;;7.91;77.60;98656.81;5054679;28;20044;-76
2021/09/25 01:24:54;;;;;;;28.60;12.35;;;;;;;7.88;77.54;98651.78;5071989;28;20048;-74
2021/09/25 01:27:20;;;;;;;28.45;12.60;;;;;;;7.88;77.38;98657.06;5072077;28;20046;-73
2021/09/25 01:29:46;;;;;;;34.33;15.98;;;;;;;7.84;78.04;98658.28;5071824;28;20033;-76
2021/09/25 01:32:12;;;;;;;42.47;22.23;;;;;;;7.83;77.80;98659.25;5072174;28;20033;-77
2021/09/25 01:34:38;;;;;;;49.13;24.95;;;;;;;7.84;77.62;98660.91;5084990;28;20480;-74
2021/09/25 01:37:04;;;;;;;39.65;20.02;;;;;;;7.82;77.72;98656.75;5073649;28;20040;-77
2021/09/25 01:39:31;;;;;;;33.92;17.17;;;;;;;7.81;78.13;98655.88;5092375;28;20036;-76
2021/09/25 01:41:59;;;;;;;42.85;19.08;;;;;;;7.84;77.76;98660.91;5070159;28;20043;-78
2021/09/25 01:44:26;;;;;;;31.65;15.25;;;;;;;7.85;77.76;98659.97;5072147;28;20074;-77
2021/09/25 01:46:56;;;;;;;29.80;14.45;;;;;;;7.85;77.75;98673.13;5071264;28;20142;-75
2021/09/25 01:49:22;;;;;;;36.88;14.57;;;;;;;7.88;77.71;98666.75;5071978;28;20028;-77
2021/09/25 01:51:48;;;;;;;27.23;12.23;;;;;;;7.86;77.79;98669.53;5071486;28;20508;-76
2021/09/25 01:54:15;;;;;;;23.85;12.18;;;;;;;7.90;77.83;98663.03;5071771;28;20043;-78
2021/09/25 01:56:42;;;;;;;21.75;11.02;;;;;;;7.86;77.74;98672.16;5053492;28;20033;-75
2021/09/25 01:59:07;;;;;;;28.67;11.43;;;;;;;7.83;77.49;98659.25;5071865;28;20033;-77
2021/09/25 02:01:33;;;;;;;27.40;10.73;;;;;;;7.86;77.89;98661.63;5073877;28;20028;-77
2021/09/25 02:04:00;;;;;;;21.70;10.40;;;;;;;7.89;77.68;98671.91;5071169;28;20063;-77
2021/09/25 02:06:26;;;;;;;24.05;10.10;;;;;;;7.89;77.90;98669.25;5070689;28;20040;-79
2021/09/25 02:08:52;;;;;;;26.92;10.13;;;;;;;7.88;77.70;98664.97;5071345;28;20062;-80
2021/09/25 02:11:17;;;;;;;25.95;10.43;;;;;;;7.88;78.06;98657.06;5071278;28;20529;-75
2021/09/25 02:13:44;;;;;;;19.55;10.20;;;;;;;7.90;77.66;98662.19;5071089;28;20087;-78
2021/09/25 02:16:10;;;;;;;25.73;10.77;;;;;;;7.89;78.00;98668.44;5053971;28;20071;-77
2021/09/25 02:18:36;;;;;;;29.08;10.43;;;;;;;7.85;77.92;98667.00;5071609;28;20123;-76
2021/09/25 02:21:02;;;;;;;22.25;10.13;;;;;;;7.83;77.94;98667.13;5071750;28;20046;-77
2021/09/25 02:23:31;;;;;;;28.42;10.88;;;;;;;7.85;78.20;98667.84;5071458;28;20048;-77
2021/09/25 02:25:59;;;;;;;23.73;11.13;;;;;;;7.81;78.01;98666.41;5071284;28;20040;-75
2021/09/25 02:28:25;;;;;;;30.50;12.25;;;;;;;7.80;78.47;98664.78;5071549;28;20052;-74
2021/09/25 02:30:51;;;;;;;27.77;11.40;;;;;;;7.87;78.09;98670.34;5071009;28;20071;-76
2021/09/25 02:33:16;;;;;;;25.55;11.77;;;;;;;7.92;78.00;98666.41;5071563;28;20060;-74
2021/09/25 02:35:42;;;;;;;29.42;13.02;;;;;;;7.92;77.73;98652.38;5071136;28;20032;-77
2021/09/25 02:38:09;;;;;;;27.08;12.10;;;;;;;7.88;78.09;98657.06;5071027;28;20425;-75
2021/09/25 02:40:35;;;;;;;27.55;12.27;;;;;;;7.80;78.18;98658.66;5071177;28;20079;-76
2021/09/25 02:43:01;;;;;;;27.67;11.63;;;;;;;7.82;78.39;98673.34;5070943;28;20039;-75
2021/09/25 02:45:27;;;;;;;25.13;11.52;;;;;;;7.85;77.95;98669.63;5071059;28;20041;-78
2021/09/25 02:47:52;;;;;;;30.98;11.45;;;;;;;7.85;78.31;98670.50;5052794;28;20029;-75
2021/09/25 02:50:18;;;;;;;31.52;11.80;;;;;;;7.85;78.12;98667.84;5071008;28;20043;-76
2021/09/25 02:52:46;;;;;;;30.40;11.52;;;;;;;7.88;78.09;98667.59;5070802;28;20384;-74
2021/09/25 02:55:12;;;;;;;30.65;12.45;;;;;;;7.91;78.14;98670.00;5071092;28;20558;-74
2021/09/25 02:57:38;;;;;;;28.02;11.00;;;;;;;7.92;78.03;98668.19;5070966;28;20039;-75
2021/09/25 03:00:06;;;;;;;27.50;10.75;;;;;;;7.94;78.01;98666.25;5070925;28;20044;-75
2021/09/25 03:02:32;;;;;;;;;;;;;;;7.94;77.66;98672.34;5071654;28;20024;-76
2021/09/25 03:04:58;;;;;;;26.17;11.60;;;;;;;7.97;77.97;98665.16;5070700;28;20426;-76
2021/09/25 03:07:23;;;;;;;24.88;12.35;;;;;;;7.97;77.57;98667.81;5071078;28;20037;-75
2021/09/25 03:09:49;;;;;;;28.60;11.82;;;;;;;7.98;78.41;98661.59;5070926;28;20029;-74
2021/09/25 03:12:15;;;;;;;29.90;13.38;;;;;;;8.01;77.83;98661.31;5070957;28;20775;-74
2021/09/25 03:14:41;;;;;;;31.77;14.05;;;;;;;8.00;77.97;98664.91;5070832;28;20063;-77
2021/09/25 03:17:07;;;;;;;27.63;13.15;;;;;;;7.91;78.01;98670.00;5071082;28;20431;-76
2021/09/25 03:19:33;;;;;;;33.15;12.80;;;;;;;7.98;78.19;98661.59;5070727;28;20029;-75
2021/09/25 03:21:59;;;;;;;26.38;11.55;;;;;;;7.99;77.43;98673.75;5073552;28;20431;-76
2021/09/25 03:24:25;;;;;;;24.88;11.15;;;;;;;7.99;77.53;98679.03;5074348;28;20040;-77
2021/09/25 03:26:50;;;;;;;24.42;11.07;;;;;;;8.03;77.97;98672.56;5074269;28;20480;-74
2021/09/25 03:29:16;;;;;;;34.47;11.90;;;;;;;8.04;77.67;98674.25;5074534;28;20512;-75
2021/09/25 03:31:42;;;;;;;25.02;10.35;;;;;;;8.05;77.82;98676.75;5039915;28;20040;-74
2021/09/25 03:34:08;;;;;;;25.27;10.75;;;;;;;8.05;77.43;98679.38;5074432;28;20041;-76
2021/09/25 03:36:43;;;;;;;28.85;10.60;;;;;;;8.03;77.62;98683.09;5057605;28;20051;-78
2021/09/25 03:39:09;;;;;;;22.98;10.40;;;;;;;8.01;77.60;98677.97;5074171;28;20032;-76
2021/09/25 03:41:35;;;;;;;25.50;10.50;;;;;;;7.97;77.78;98679.16;5074199;28;20037;-75
2021/09/25 03:44:01;;;;;;;25.35;10.52;;;;;;;7.96;78.30;98680.13;5074743;28;20044;-76
2021/09/25 03:46:27;;;;;;;22.20;10.15;;;;;;;7.94;78.05;98682.88;5074521;28;20048;-79
2021/09/25 03:48:53;;;;;;;25.55;10.85;;;;;;;7.96;78.07;98677.47;5074094;28;20090;-75
2021/09/25 03:51:19;;;;;;;25.23;10.65;;;;;;;7.91;77.81;98670.00;5073332;28;20059;-77
2021/09/25 03:53:44;;;;;;;24.25;10.02;;;;;;;7.88;78.24;98672.84;5075223;28;20037;-77
2021/09/25 03:56:11;;;;;;;23.83;11.57;;;;;;;7.88;78.35;98666.75;5075324;28;20039;-77
2021/09/25 03:58:38;;;;;;;29.08;10.25;;;;;;;7.88;78.10;98672.84;5075681;28;20051;-77
2021/09/25 04:01:04;;;;;;;23.85;10.55;;;;;;;7.94;78.19;98668.91;5074570;28;20068;-75
2021/09/25 04:03:30;;;;;;;23.73;9.50;;;;;;;7.91;78.31;98664.72;5082043;28;20040;-75
2021/09/25 04:05:58;;;;;;;27.08;9.75;;;;;;;7.99;78.21;98664.09;5089494;28;20032;-77
2021/09/25 04:08:24;;;;;;;20.08;9.68;;;;;;;8.04;78.04;98666.34;5082120;28;20044;-77
2021/09/25 04:10:50;;;;;;;25.83;10.68;;;;;;;8.05;77.75;98671.47;5077091;28;20044;-76
2021/09/25 04:13:16;;;;;;;22.92;9.82;;;;;;;8.08;77.65;98665.13;5059493;28;20028;-78
2021/09/25 04:15:42;;;;;;;29.65;9.95;;;;;;;8.09;77.79;98679.97;5091416;28;20066;-80
2021/09/25 04:18:10;;;;;;;25.02;9.50;;;;;;;8.08;77.58;98680.91;5043044;28;20036;-76
2021/09/25 04:20:37;;;;;;;24.38;10.15;;;;;;;8.14;77.51;98682.19;5095169;28;20070;-75
2021/09/25 04:23:03;;;;;;;23.55;10.00;;;;;;;8.14;77.58;98683.03;5094056;28;20044;-77
2021/09/25 04:25:31;;;;;;;25.95;11.23;;;;;;;8.09;77.37;98679.97;5076037;28;20038;-83
2021/09/25 04:27:59;;;;;;;28.35;10.32;;;;;;;8.16;77.61;98667.97;5076319;28;20126;-79
2021/09/25 04:30:25;;;;;;;23.90;9.87;;;;;;;8.19;77.29;98664.22;5094716;28;20036;-76
2021/09/25 04:32:51;;;;;;;25.70;10.43;;;;;;;8.18;77.23;98667.81;5093359;28;20044;-77
2021/09/25 04:35:18;;;;;;;20.75;9.85;;;;;;;8.17;77.22;98672.22;5093891;28;20046;-80
2021/09/25 04:37:44;;;;;;;22.92;8.80;;;;;;;8.17;77.61;98666.97;5093512;28;20070;-78
2021/09/25 04:40:10;;;;;;;25.85;10.07;;;;;;;8.21;77.57;98672.81;5094184;28;20582;-76
2021/09/25 04:42:36;;;;;;;26.10;10.48;;;;;;;8.26;77.22;98660.94;5076078;28;20048;-79
2021/09/25 04:45:03;;;;;;;25.63;9.90;;;;;;;8.28;77.20;98665.25;5093358;28;20043;-75
2021/09/25 04:47:29;;;;;;;23.15;10.77;;;;;;;8.35;77.24;98675.13;5093093;28;20044;-78
2021/09/25 04:49:55;;;;;;;24.92;10.35;;;;;;;8.32;76.67;98669.28;5093034;28;20051;-76
2021/09/25 04:52:20;;;;;;;22.48;9.82;;;;;;;8.30;77.06;98655.41;5091320;28;20035;-75
2021/09/25 04:54:46;;;;;;;21.13;10.18;;;;;;;8.37;76.85;98667.09;5093492;28;20047;-76
2021/09/25 04:57:12;;;;;;;22.98;9.27;;;;;;;8.42;76.82;98662.28;5094169;28;20044;-78
2021/09/25 04:59:38;;;;;;;37.22;15.75;;;;;;;8.41;76.79;98668.50;5094561;28;20119;-78
2021/09/25 05:02:04;;;;;;;29.02;10.88;;;;;;;8.50;76.56;98672.19;5076414;28;20036;-79
2021/09/25 05:04:30;;;;;;;33.45;10.52;;;;;;;8.51;76.30;98674.72;5094020;28;20040;-78
2021/09/25 05:06:56;;;;;;;24.52;10.88;;;;;;;8.65;76.10;98667.41;5095078;28;20039;-77
2021/09/25 05:09:22;;;;;;;30.55;11.55;;;;;;;8.65;75.99;98668.25;5093875;28;20028;-79
2021/09/25 05:11:49;;;;;;;25.95;10.48;;;;;;;8.56;75.95;98669.03;5093718;28;20039;-79
2021/09/25 05:14:15;;;;;;;32.13;11.07;;;;;;;8.64;76.09;98668.41;5092407;28;20404;-79
2021/09/25 05:16:41;;;;;;;25.85;11.02;;;;;;;8.63;76.02;98672.00;5096197;28;20119;-77
2021/09/25 05:19:06;;;;;;;30.15;11.80;;;;;;;8.67;75.76;98674.25;5062707;28;20071;-79
2021/09/25 05:21:32;;;;;;;32.05;12.13;;;;;;;8.63;75.83;98683.38;5087987;28;20040;-78
2021/09/25 05:23:59;;;;;;;32.53;12.73;;;;;;;8.63;76.10;98688.63;5097283;28;20052;-77
2021/09/25 05:26:24;;;;;;;30.45;12.40;;;;;;;8.66;75.96;98688.41;5093827;28;20070;-79
2021/09/25 05:28:50;;;;;;;28.92;13.23;;;;;;;8.70;75.73;98673.16;5094855;28;20498;-78
2021/09/25 05:31:16;;;;;;;34.22;12.02;;;;;;;8.69;75.63;98679.38;5094192;28;20043;-80
2021/09/25 05:33:42;;;;;;;31.92;13.77;;;;;;;8.73;75.52;98676.38;5096121;28;20036;-80
2021/09/25 05:36:08;;;;;;;31.15;12.45;;;;;;;8.81;75.02;98677.47;5075635;28;20385;-77
2021/09/25 05:38:33;;;;;;;28.58;12.20;;;;;;;8.85;75.30;98677.09;5093312;28;20028;-82
2021/09/25 05:40:59;;;;;;;28.17;11.98;;;;;;;8.86;75.22;98664.72;5092878;28;20043;-78
2021/09/25 05:43:25;;;;;;;34.80;13.32;;;;;;;8.84;75.55;98667.50;5092248;28;20042;-78
2021/09/25 05:45:51;;;;;;;38.97;13.50;;;;;;;8.89;75.22;98677.66;5092116;28;20373;-78
2021/09/25 05:48:17;;;;;;;27.83;12.50;;;;;;;9.00;75.03;98674.13;5092699;28;20032;-77
2021/09/25 05:50:42;;;;;;;30.05;12.68;;;;;;;9.05;74.63;98677.19;5093663;28;20153;-80
2021/09/25 05:53:08;;;;;;;30.40;12.57;;;;;;;9.06;74.52;98678.84;5093164;28;20051;-79
2021/09/25 05:55:34;;;;;;;29.08;12.45;;;;;;;9.07;74.60;98684.00;5105299;28;20040;-84
2021/09/25 05:58:02;;;;;;;27.15;13.07;;;;;;;9.13;74.35;98685.25;5056029;28;20500;-78
2021/09/25 06:00:31;;;;;;;31.50;11.32;;;;;;;9.14;74.13;98692.19;5082519;28;20076;-78
2021/09/25 06:02:57;;;;;;;32.20;12.13;;;;;;;8.87;74.24;98685.72;5082385;28;20032;-77
2021/09/25 06:05:24;;;;;;;28.05;11.63;;;;;;;8.98;74.45;98686.59;5066941;28;20032;-76
2021/09/25 06:07:51;;;;;;;27.00;11.80;;;;;;;9.02;73.92;98687.97;5078477;28;20591;-77
2021/09/25 06:10:17;;;;;;;32.05;12.07;;;;;;;9.09;73.93;98689.13;5080442;28;20031;-77
2021/09/25 06:12:42;;;;;;;27.48;11.98;;;;;;;9.05;74.41;98682.47;5080954;28;20032;-78
2021/09/25 06:15:09;;;;;;;28.08;10.88;;;;;;;9.06;73.96;98681.50;5080387;28;20190;-75
2021/09/25 06:17:35;;;;;;;26.50;11.70;;;;;;;9.16;73.83;98687.63;5090017;28;20046;-78
2021/09/25 06:20:00;;;;;;;30.10;11.73;;;;;;;9.11;73.73;98692.47;5095112;28;20070;-79
2021/09/25 06:22:26;;;;;;;29.92;13.52;;;;;;;9.17;73.87;98691.09;5075764;28;20038;-79
2021/09/25 06:24:55;;;;;;;27.88;12.68;;;;;;;9.07;73.97;98688.41;5093499;28;20070;-78
2021/09/25 06:27:20;;;;;;;34.22;12.68;;;;;;;9.12;73.88;98688.88;5093112;28;20032;-77
2021/09/25 06:29:46;;;;;;;24.98;11.23;;;;;;;9.21;73.71;98692.50;5094342;28;20139;-78
2021/09/25 06:32:12;;;;;;;28.42;11.82;;;;;;;9.11;73.78;98692.47;5094237;28;20548;-78
2021/09/25 06:34:37;;;;;;;26.45;10.68;;;;;;;9.09;74.06;98694.41;5094176;28;20028;-79
2021/09/25 06:37:04;;;;;;;41.85;16.35;;;;;;;9.02;74.30;98695.91;5094091;28;20119;-81
2021/09/25 06:39:30;;;;;;;23.65;11.15;;;;;;;9.01;74.37;98686.31;5093102;28;20044;-77
2021/09/25 06:41:56;;;;;;;27.45;12.73;;;;;;;9.04;74.26;98693.97;5093308;28;20032;-78
2021/09/25 06:44:22;;;;;;;27.33;11.85;;;;;;;9.05;74.34;98690.38;5093930;28;20413;-78
2021/09/25 06:46:48;;;;;;;25.83;12.88;;;;;;;8.98;74.53;98690.03;5094376;28;20485;-77
2021/09/25 06:49:14;;;;;;;68.22;32.17;;;;;;;9.05;74.61;98687.72;5075634;28;20040;-79
2021/09/25 06:51:40;;;;;;;68.35;28.33;;;;;;;9.02;74.76;98695.91;5093636;28;20170;-77
2021/09/25 06:54:05;;;;;;;26.27;11.88;;;;;;;9.05;74.60;98690.38;5093250;28;20036;-78
2021/09/25 06:56:32;;;;;;;29.35;12.77;;;;;;;8.95;74.94;98692.97;5095713;28;20117;-78
2021/09/25 06:58:58;;;;;;;24.70;11.48;;;;;;;9.04;74.82;98686.06;5078579;28;20090;-78
2021/09/25 07:01:24;;;;;;;29.60;13.25;;;;;;;9.03;75.00;98679.97;5096236;28;20163;-78
2021/09/25 07:03:49;;;;;;;32.60;12.88;;;;;;;9.04;75.15;98684.25;5096422;28;20116;-78
2021/09/25 07:06:18;;;;;;;28.25;11.88;;;;;;;9.10;74.87;98682.88;5079178;28;20449;-79
2021/09/25 07:08:44;;;;;;;26.38;12.77;;;;;;;9.13;74.70;98674.69;5078971;28;20071;-78
2021/09/25 07:11:10;;;;;;;25.40;11.80;;;;;;;9.21;74.66;98681.97;5077757;28;20369;-78
2021/09/25 07:13:36;;;;;;;40.47;16.08;;;;;;;9.28;74.54;98680.44;5095033;28;20089;-77
2021/09/25 07:16:02;;;;;;;27.27;12.02;;;;;;;9.36;74.20;98685.88;5095579;28;20032;-80
2021/09/25 07:18:28;;;;;;;28.40;11.82;;;;;;;9.35;73.83;98678.09;5095735;28;20054;-79
2021/09/25 07:20:53;;;;;;;25.73;12.10;;;;;;;9.18;74.26;98680.44;5095098;28;20114;-80
2021/09/25 07:23:19;;;;;;;29.60;12.65;;;;;;;9.18;74.66;98676.94;5096470;28;20118;-80
2021/09/25 07:25:45;;;;;;;48.92;22.27;;;;;;;9.38;74.26;98675.19;5096075;28;20090;-80
2021/09/25 07:28:11;;;;;;;33.75;14.85;;;;;;;9.67;74.02;98677.03;5095016;28;20445;-84
2021/09/25 07:30:38;;;;;;;29.23;12.80;;;;;;;9.55;73.92;98677.16;5077308;28;20100;-79
2021/09/25 07:33:05;;;;;;;26.30;12.30;;;;;;;9.47;73.90;98671.75;5077216;28;20415;-76
2021/09/25 07:35:31;;;;;;;26.80;11.73;;;;;;;9.45;73.84;98675.50;5095353;28;20047;-76
2021/09/25 07:37:57;;;;;;;28.05;12.10;;;;;;;9.60;73.58;98671.47;5095605;28;20036;-75
2021/09/25 07:40:23;;;;;;;27.23;12.10;;;;;;;9.62;73.67;98673.97;5098794;28;20028;-81
2021/09/25 07:42:52;;;;;;;113.05;50.72;;;;;;;9.61;73.27;98667.00;5084846;28;20551;-84
2021/09/25 07:45:18;;;;;;;120.30;50.13;;;;;;;9.67;73.48;98666.47;5046150;28;20092;-80
2021/09/25 07:47:44;;;;;;;27.38;11.57;;;;;;;9.78;73.29;98655.78;5096522;28;20139;-81
2021/09/25 07:50:10;;;;;;;26.15;12.18;;;;;;;9.81;72.81;98662.59;5060904;28;20036;-77
2021/09/25 07:52:39;;;;;;;24.13;12.77;;;;;;;9.76;72.85;98655.09;5096551;28;20494;-79
2021/09/25 07:55:06;;;;;;;23.90;11.88;;;;;;;9.75;72.83;98663.97;5061317;28;20039;-80
2021/09/25 07:57:32;;;;;;;24.63;11.60;;;;;;;9.58;73.26;98668.13;5077067;28;20028;-80
2021/09/25 07:59:58;;;;;;;28.08;13.85;;;;;;;9.54;73.74;98657.03;5094578;28;20036;-79
2021/09/25 08:02:27;;;;;;;27.92;12.00;;;;;;;9.63;73.57;98662.44;5094679;28;20040;-79
2021/09/25 08:04:55;;;;;;;40.20;15.95;;;;;;;9.69;73.40;98661.88;5060154;28;20085;-75
2021/09/25 08:07:21;;;;;;;30.05;12.50;;;;;;;9.62;73.53;98669.53;5094304;28;20028;-77
2021/09/25 08:09:47;;;;;;;26.40;11.77;;;;;;;9.71;73.43;98654.69;5095707;28;20617;-80
2021/09/25 08:12:12;;;;;;;25.52;12.57;;;;;;;9.81;73.08;98663.44;5094909;28;20126;-76
2021/09/25 08:14:38;;;;;;;24.88;11.43;;;;;;;9.93;72.90;98660.66;5096868;28;20536;-78
2021/09/25 08:17:10;;;;;;;191.98;91.22;;;;;;;9.90;73.07;98661.75;5077360;28;20040;-81
2021/09/25 08:19:38;;;;;;;28.23;12.60;;;;;;;9.92;72.76;98658.97;5077450;28;20035;-79
2021/09/25 08:22:04;;;;;;;31.70;13.85;;;;;;;10.03;72.63;98656.19;5076402;28;20093;-78
2021/09/25 08:24:42;;;;;;;29.65;13.13;;;;;;;10.11;72.24;98666.06;5076629;28;20047;-78
2021/09/25 08:27:11;;;;;;;26.38;12.35;;;;;;;10.06;72.43;98655.91;5077286;28;20455;-79
2021/09/25 08:29:37;;;;;;;24.20;11.95;;;;;;;10.11;72.72;98658.97;5095544;28;20072;-77
2021/09/25 08:32:09;;;;;;;27.63;12.40;;;;;;;10.04;72.73;98652.56;5094337;28;20044;-81
2021/09/25 08:35:13;;;;;;;27.17;12.43;;;;;;;10.10;73.19;98651.19;5060566;28;20472;-82
2021/09/25 08:37:42;;;;;;;26.90;13.10;;;;;;;10.15;72.80;98651.59;5087502;28;20086;-82
2021/09/25 08:40:26;;;;;;;24.38;13.15;;;;;;;10.08;73.24;98648.69;5075798;28;20027;-82
2021/09/25 08:43:06;;;;;;;25.55;13.40;;;;;;;10.10;74.00;98657.28;5094594;28;20024;-82
2021/09/25 08:45:49;;;;;;;27.08;12.98;;;;;;;10.06;74.33;98653.28;5061985;28;20060;-78
2021/09/25 08:48:20;;;;;;;28.23;12.77;;;;;;;10.03;74.41;98650.91;5096392;28;20053;-79
2021/09/25 08:50:50;;;;;;;27.70;13.50;;;;;;;9.99;74.99;98653.00;5044011;28;20079;-81
2021/09/25 08:53:38;;;;;;;34.03;14.68;;;;;;;10.03;74.96;98645.63;5094820;28;20071;-80
2021/09/25 08:56:12;;;;;;;28.27;13.63;;;;;;;10.07;75.61;98641.75;5077788;28;20437;-79
2021/09/25 08:58:48;;;;;;;31.98;14.50;;;;;;;10.18;75.44;98631.00;5095450;28;20043;-79
2021/09/25 09:01:48;;;;;;;31.90;13.82;;;;;;;10.23;76.13;98627.94;5058847;28;20109;-81
2021/09/25 09:04:17;;;;;;;29.10;13.68;;;;;;;10.12;76.40;98633.38;5075307;28;20028;-81
2021/09/25 09:06:48;;;;;;;27.85;14.65;;;;;;;9.91;76.45;98633.56;5075494;28;20292;-81
2021/09/25 09:09:17;;;;;;;28.27;13.88;;;;;;;10.03;76.77;98629.75;5076516;28;20457;-79
2021/09/25 09:11:48;;;;;;;25.42;13.13;;;;;;;9.98;76.53;98626.72;5094232;28;20116;-79
2021/09/25 09:14:16;;;;;;;29.38;13.73;;;;;;;10.03;76.66;98624.47;5094615;28;20055;-81
2021/09/25 09:16:42;;;;;;;25.63;13.03;;;;;;;10.07;76.36;98631.16;5094492;28;20046;-79
2021/09/25 09:19:07;;;;;;;26.08;12.32;;;;;;;10.02;76.47;98622.84;5094923;28;20118;-78
2021/09/25 09:21:33;;;;;;;26.85;12.57;;;;;;;10.09;76.31;98628.38;5066836;28;20024;-82
2021/09/25 09:24:05;;;;;;;23.83;12.07;;;;;;;10.17;75.68;98626.69;5079338;28;20055;-78
2021/09/25 09:26:38;;;;;;;18.90;10.98;;;;;;;10.04;75.53;98627.00;5094754;28;20047;-80
2021/09/25 09:29:06;;;;;;;35.70;13.15;;;;;;;10.18;75.88;98623.09;5093799;28;20047;-81
2021/09/25 09:31:32;;;;;;;;;;;;;;;10.15;75.66;98627.81;5077573;28;20047;-80
2021/09/25 09:33:59;;;;;;;23.23;11.02;;;;;;;9.96;75.70;98636.59;5076014;28;19908;-79
2021/09/25 09:36:39;;;;;;;20.97;11.73;;;;;;;10.00;75.74;98635.34;5075598;28;20031;-79
2021/09/25 09:39:20;;;;;;;24.92;11.02;;;;;;;9.93;75.84;98631.59;5075060;28;20048;-79
2021/09/25 09:41:51;;;;;;;24.45;11.80;;;;;;;9.94;76.31;98630.63;5093053;28;20036;-81
2021/09/25 09:44:25;;;;;;;28.08;12.20;;;;;;;9.75;76.77;98637.56;5092849;28;20071;-79
2021/09/25 09:46:54;;;;;;;24.92;11.90;;;;;;;9.73;76.89;98633.41;5076456;28;20121;-80
2021/09/25 09:49:28;;;;;;;22.60;10.82;;;;;;;9.69;77.29;98638.13;5075561;28;20127;-80
2021/09/25 09:51:58;;;;;;;25.08;11.38;;;;;;;9.77;76.57;98634.78;5093230;28;20500;-79
2021/09/25 09:54:28;;;;;;;25.95;11.52;;;;;;;9.68;77.48;98636.47;5074956;28;20036;-79
2021/09/25 09:57:01;;;;;;;25.77;12.05;;;;;;;9.71;77.33;98633.56;5093140;28;20077;-81
2021/09/25 09:59:28;;;;;;;21.10;9.88;;;;;;;9.75;77.37;98634.94;5093214;28;20039;-79
2021/09/25 10:01:54;;;;;;;27.50;11.13;;;;;;;9.99;76.73;98633.66;5036711;28;20069;-79
2021/09/25 10:04:20;;;;;;;23.77;10.02;;;;;;;10.09;76.43;98633.66;5075757;28;20028;-83
2021/09/25 10:06:47;;;;;;;23.90;11.82;;;;;;;10.09;76.05;98629.19;5053654;28;20029;-78
2021/09/25 10:09:25;;;;;;;21.67;10.95;;;;;;;10.00;76.63;98625.59;5072064;28;20028;-82
2021/09/25 10:11:54;;;;;;;25.52;11.45;;;;;;;10.21;76.27;98629.91;5072147;28;20033;-76
2021/09/25 10:14:25;;;;;;;27.65;11.85;;;;;;;10.17;75.90;98629.34;5071311;28;20102;-78
2021/09/25 10:16:53;;;;;;;26.23;12.57;;;;;;;10.19;76.22;98624.75;5071888;28;20028;-77
2021/09/25 10:19:22;;;;;;;23.77;11.82;;;;;;;10.01;76.36;98631.72;5071412;28;20070;-76
2021/09/25 10:22:02;;;;;;;24.92;11.30;;;;;;;9.96;76.87;98623.41;5054208;28;20033;-77
2021/09/25 10:24:38;;;;;;;23.58;11.52;;;;;;;9.95;77.10;98621.72;5054325;28;20043;-79
2021/09/25 10:27:06;;;;;;;24.08;11.35;;;;;;;9.93;77.03;98621.03;5070185;28;20036;-78
2021/09/25 10:29:31;;;;;;;22.42;10.93;;;;;;;9.89;77.64;98617.84;5071541;28;20044;-79
2021/09/25 10:32:17;;;;;;;23.48;11.38;;;;;;;9.75;77.92;98619.09;5071371;28;20094;-77
2021/09/25 10:35:25;;;;;;;23.83;11.20;;;;;;;9.84;78.05;98607.72;5071736;28;20047;-78
2021/09/25 10:37:57;;;;;;;24.67;10.85;;;;;;;9.81;78.03;98605.34;5051378;28;20044;-81
2021/09/25 10:40:28;;;;;;;22.67;10.10;;;;;;;9.83;78.08;98613.97;5071685;28;20082;-78
2021/09/25 10:43:04;;;;;;;22.00;10.30;;;;;;;10.04;77.96;98605.88;5072724;28;20028;-76
2021/09/25 10:45:31;;;;;;;23.52;10.88;;;;;;;10.06;77.12;98602.25;5072632;28;20472;-77
2021/09/25 10:48:14;;;;;;;21.02;10.57;;;;;;;10.14;77.51;98610.28;5070185;28;20033;-77
2021/09/25 10:50:47;;;;;;;20.77;10.70;;;;;;;10.16;77.26;98603.88;5071188;28;20041;-76
2021/09/25 10:53:25;;;;;;;25.45;11.25;;;;;;;10.11;77.16;98600.03;5071463;28;20032;-76
2021/09/25 10:55:53;;;;;;;24.10;11.45;;;;;;;10.15;77.02;98606.69;5071787;28;20070;-78
2021/09/25 10:58:19;;;;;;;;;;;;;;;10.15;76.89;98609.31;5072286;28;20481;-79
2021/09/25 11:00:49;;;;;;;26.73;10.90;;;;;;;10.10;77.10;98609.75;5053125;28;19961;-80
2021/09/25 11:03:54;;;;;;;19.85;10.68;;;;;;;10.17;76.78;98607.38;5071163;28;20032;-79
2021/09/25 11:06:26;;;;;;;24.65;11.65;;;;;;;10.22;76.73;98612.22;5008944;28;20037;-76
2021/09/25 11:09:03;;;;;;;26.90;11.27;;;;;;;10.23;76.84;98611.25;4993012;28;20041;-76
2021/09/25 11:11:36;;;;;;;26.35;12.15;;;;;;;10.19;76.90;98614.19;5014218;28;20050;-77
2021/09/25 11:14:02;;;;;;;21.65;10.70;;;;;;;10.19;76.48;98614.19;5015964;28;20059;-80
2021/09/25 11:17:05;;;;;;;22.38;10.70;;;;;;;10.21;76.92;98611.41;5002134;28;20475;-78
2021/09/25 11:19:37;;;;;;;26.45;11.95;;;;;;;10.18;76.80;98607.22;5018439;28;20029;-76
2021/09/25 11:22:22;;;;;;;23.42;11.95;;;;;;;10.30;76.85;98604.41;5018766;28;20030;-76
2021/09/25 11:24:54;;;;;;;28.65;11.98;;;;;;;10.27;76.67;98605.53;5016385;28;20077;-78
2021/09/25 11:27:24;;;;;;;21.67;10.15;;;;;;;10.17;76.45;98600.28;5002090;28;20661;-79
2021/09/25 11:30:09;;;;;;;24.92;12.57;;;;;;;10.18;77.31;98606.38;5018991;28;20099;-78